Time;durP1;ratioP1;P1;durP2;ratioP2;P2;SDS_P1;SDS_P2;PMS_P1;PMS_P2;Temp;Humidity;BMP_temperature;BMP_pressure;BME280_temperature;BME280_humidity;BME280_pressure;Samples;Min_cycle;Max_cycle;Signal;HPM_P1;HPM_P2
2021/05/26 00:00:39;;;;;;;0.40;0.10;;;;;;;15.71;60.02;100558.31;4919292;28;99564;-63
2021/05/26 00:03:05;;;;;;;0.65;0.10;;;;;;;15.72;59.91;100568.09;4920671;28;127192;-63
2021/05/26 00:05:31;;;;;;;0.75;0.10;;;;;;;15.72;59.78;100559.94;4916958;28;107387;-71
2021/05/26 00:07:58;;;;;;;0.40;0.10;;;;;;;15.69;60.27;100558.63;4922048;28;97912;-70
2021/05/26 00:10:24;;;;;;;0.70;0.10;;;;;;;15.68;60.15;100562.44;4924253;28;98272;-63
2021/05/26 00:12:51;;;;;;;0.52;0.10;;;;;;;15.69;59.94;100558.63;4923334;28;128047;-63
2021/05/26 00:15:17;;;;;;;0.60;0.10;;;;;;;15.67;60.30;100566.25;4921879;28;127776;-71
2021/05/26 00:17:43;;;;;;;1.00;0.10;;;;;;;15.67;60.31;100549.13;4904005;28;98033;-63
2021/05/26 00:20:10;;;;;;;0.63;0.10;;;;;;;15.66;60.04;100555.69;4880213;28;97959;-63
2021/05/26 00:22:36;;;;;;;0.50;0.10;;;;;;;15.65;60.07;100560.31;4921807;28;97978;-63
2021/05/26 00:25:03;;;;;;;0.50;0.10;;;;;;;15.64;60.18;100560.56;4922314;28;98135;-63
2021/05/26 00:27:30;;;;;;;0.90;0.10;;;;;;;15.61;60.43;100551.13;4916075;28;99377;-63
2021/05/26 00:29:56;;;;;;;0.93;0.10;;;;;;;15.58;60.67;100554.44;4915072;28;99496;-63
2021/05/26 00:32:22;;;;;;;0.40;0.10;;;;;;;15.58;60.24;100553.63;4922501;28;98823;-71
2021/05/26 00:34:48;;;;;;;0.90;0.10;;;;;;;15.56;60.72;100545.78;4920962;28;128356;-64
2021/05/26 00:37:14;;;;;;;0.35;0.10;;;;;;;15.56;60.53;100547.66;4903104;28;107905;-63
2021/05/26 00:39:40;;;;;;;1.30;0.10;;;;;;;15.54;60.43;100544.47;4920938;28;115884;-71
2021/05/26 00:42:06;;;;;;;0.40;0.10;;;;;;;15.51;60.75;100542.34;4920301;28;125862;-71
2021/05/26 00:44:32;;;;;;;0.50;0.10;;;;;;;15.47;60.89;100537.50;4884725;28;128199;-64
2021/05/26 00:46:58;;;;;;;0.30;0.10;;;;;;;15.45;60.84;100531.56;4880341;28;127171;-71
2021/05/26 00:49:24;;;;;;;0.82;0.10;;;;;;;15.41;61.02;100530.56;4905014;28;97895;-64
2021/05/26 00:51:50;;;;;;;0.60;0.10;;;;;;;15.42;61.05;100536.78;4903349;28;128993;-63
2021/05/26 00:54:16;;;;;;;0.47;0.10;;;;;;;15.40;60.91;100537.06;4898789;28;128023;-64
2021/05/26 00:56:42;;;;;;;0.70;0.10;;;;;;;15.38;61.16;100536.56;4901763;28;128480;-71
2021/05/26 00:59:08;;;;;;;0.60;0.10;;;;;;;15.35;60.87;100539.88;4885748;28;98413;-64
2021/05/26 01:01:35;;;;;;;0.75;0.10;;;;;;;15.35;61.04;100536.34;4906845;28;128604;-64
2021/05/26 01:04:01;;;;;;;0.50;0.10;;;;;;;15.35;61.05;100536.34;4897816;28;120454;-71
2021/05/26 01:06:27;;;;;;;0.47;0.10;;;;;;;15.35;60.96;100539.88;4884728;28;98945;-72
2021/05/26 01:08:53;;;;;;;1.00;0.10;;;;;;;15.32;60.77;100536.94;4884203;28;115448;-71
2021/05/26 01:11:19;;;;;;;1.10;0.10;;;;;;;15.32;61.11;100545.09;4902985;28;98914;-71
2021/05/26 01:13:45;;;;;;;1.15;0.10;;;;;;;15.26;60.88;100533.53;4902623;28;102848;-71
2021/05/26 01:16:11;;;;;;;0.52;0.10;;;;;;;15.28;61.08;100535.94;4910351;28;127457;-64
2021/05/26 01:18:37;;;;;;;1.27;0.15;;;;;;;15.23;60.94;100526.75;4907336;28;118314;-63
2021/05/26 01:21:09;;;;;;;0.98;0.10;;;;;;;15.21;61.02;100529.00;4921832;28;100186;-64
2021/05/26 01:23:35;;;;;;;0.75;0.10;;;;;;;15.17;60.83;100530.69;4905008;28;98205;-64
2021/05/26 01:26:03;;;;;;;0.82;0.10;;;;;;;15.21;61.04;100530.91;4865312;28;109680;-71
2021/05/26 01:28:29;;;;;;;0.70;0.15;;;;;;;15.17;60.83;100525.25;4902070;28;97898;-63
2021/05/26 01:30:56;;;;;;;0.65;0.10;;;;;;;15.14;61.36;100525.03;4885146;28;98218;-71
2021/05/26 01:33:24;;;;;;;0.73;0.10;;;;;;;15.15;60.88;100516.59;4903291;28;98456;-71
2021/05/26 01:35:50;;;;;;;1.30;0.10;;;;;;;15.15;60.91;100524.72;4901831;28;112904;-71
2021/05/26 01:38:20;;;;;;;1.48;0.10;;;;;;;15.14;60.94;100525.84;4901821;28;105824;-64
2021/05/26 01:40:46;;;;;;;0.50;0.10;;;;;;;15.12;61.19;100521.78;4908564;28;98174;-71
2021/05/26 01:43:12;;;;;;;0.63;0.10;;;;;;;15.08;61.28;100518.88;4886869;28;98336;-63
2021/05/26 01:45:39;;;;;;;0.77;0.10;;;;;;;15.05;61.51;100522.19;4897160;28;99458;-71
2021/05/26 01:48:05;;;;;;;2.60;0.20;;;;;;;15.08;61.38;100527.00;4920920;28;117551;-71
2021/05/26 01:50:32;;;;;;;1.25;0.10;;;;;;;15.04;61.13;100519.75;4920914;28;112107;-64
2021/05/26 01:53:08;;;;;;;0.73;0.10;;;;;;;15.02;61.49;100521.97;4921317;28;98542;-64
2021/05/26 01:55:35;;;;;;;2.08;0.20;;;;;;;15.00;61.13;100524.97;4887922;28;105376;-64
2021/05/26 01:58:02;;;;;;;1.02;0.10;;;;;;;14.98;61.27;100521.75;4902739;28;97925;-64
2021/05/26 02:00:28;;;;;;;0.75;0.10;;;;;;;15.00;61.36;100527.69;4917727;28;120108;-71
2021/05/26 02:02:54;;;;;;;1.08;0.17;;;;;;;14.98;61.15;100525.28;4921107;28;119263;-71
2021/05/26 02:05:20;;;;;;;0.93;0.10;;;;;;;14.95;61.42;100523.13;4921140;28;98018;-71
2021/05/26 02:07:47;;;;;;;1.50;0.20;;;;;;;14.94;61.57;100524.25;4919707;28;118122;-71
2021/05/26 02:10:16;;;;;;;1.33;0.17;;;;;;;14.91;61.33;100518.59;4914382;28;98525;-63
2021/05/26 02:12:43;;;;;;;1.40;0.10;;;;;;;14.89;61.75;100515.38;4883490;28;99233;-64
2021/05/26 02:15:13;;;;;;;1.83;0.10;;;;;;;14.87;61.88;100518.38;4883414;28;97931;-71
2021/05/26 02:17:39;;;;;;;1.73;0.10;;;;;;;14.85;61.66;100515.13;4902205;28;97674;-71
2021/05/26 02:20:07;;;;;;;1.10;0.17;;;;;;;14.81;61.74;100508.69;4900566;28;113810;-71
2021/05/26 02:22:34;;;;;;;0.90;0.20;;;;;;;14.81;61.79;100510.59;4901511;28;107094;-63
2021/05/26 02:25:01;;;;;;;0.70;0.20;;;;;;;14.77;62.11;100513.09;4901063;28;98406;-63
2021/05/26 02:27:27;;;;;;;0.50;0.10;;;;;;;14.73;62.28;100512.06;4911619;28;97924;-71
2021/05/26 02:29:53;;;;;;;0.57;0.10;;;;;;;14.72;62.32;100511.28;4920159;28;127888;-63
2021/05/26 02:32:22;;;;;;;1.10;0.10;;;;;;;14.68;62.17;100509.44;4920095;28;127819;-71
2021/05/26 02:34:48;;;;;;;0.68;0.10;;;;;;;14.68;61.75;100504.81;4911380;28;98475;-71
2021/05/26 02:37:14;;;;;;;0.95;0.20;;;;;;;14.67;62.29;100502.41;4902378;28;98412;-63
2021/05/26 02:39:40;;;;;;;0.55;0.10;;;;;;;14.63;62.22;100507.63;4901454;28;127074;-71
2021/05/26 02:42:06;;;;;;;1.25;0.20;;;;;;;14.64;62.20;100511.94;4901771;28;128246;-71
2021/05/26 02:44:32;;;;;;;1.17;0.20;;;;;;;14.62;62.29;100502.47;4885876;28;118079;-63
2021/05/26 02:46:58;;;;;;;1.40;0.10;;;;;;;14.65;62.21;100502.69;4900943;28;118136;-63
2021/05/26 02:49:24;;;;;;;0.82;0.10;;;;;;;14.61;62.11;100498.94;4866877;28;100993;-63
2021/05/26 02:51:50;;;;;;;1.13;0.15;;;;;;;14.61;62.09;100496.22;4866695;28;128503;-63
2021/05/26 02:54:16;;;;;;;0.77;0.10;;;;;;;14.59;61.94;100501.16;4866434;28;128061;-63
2021/05/26 02:56:42;;;;;;;1.48;0.17;;;;;;;14.61;62.24;100503.56;4901166;28;98099;-71
2021/05/26 02:59:08;;;;;;;0.55;0.10;;;;;;;14.60;62.08;100508.19;4866290;28;127246;-71
2021/05/26 03:01:35;;;;;;;1.17;0.20;;;;;;;14.62;62.34;100505.16;4886087;28;126589;-63
2021/05/26 03:04:02;;;;;;;2.15;0.20;;;;;;;14.60;62.06;100510.09;4888417;28;98729;-63
2021/05/26 03:06:30;;;;;;;1.83;0.10;;;;;;;14.63;62.21;100509.53;4910489;28;107907;-71
2021/05/26 03:08:56;;;;;;;1.23;0.20;;;;;;;14.59;62.18;100505.78;4904725;28;98462;-63
2021/05/26 03:11:22;;;;;;;1.35;0.20;;;;;;;14.60;61.68;100501.97;4903676;28;127861;-63
2021/05/26 03:13:48;;;;;;;2.35;0.13;;;;;;;14.61;61.74;100511.72;4903164;28;127483;-71
2021/05/26 03:16:14;;;;;;;1.33;0.10;;;;;;;14.61;61.69;100504.38;4918126;28;97878;-71
2021/05/26 03:18:41;;;;;;;0.90;0.20;;;;;;;14.64;61.48;100498.38;4903704;28;127848;-64
2021/05/26 03:21:07;;;;;;;1.40;0.25;;;;;;;14.66;62.03;100511.66;4904638;28;98506;-71
2021/05/26 03:23:33;;;;;;;2.47;0.20;;;;;;;14.67;61.68;100502.41;4886167;28;98459;-71
2021/05/26 03:25:59;;;;;;;1.25;0.25;;;;;;;14.68;61.78;100504.81;4903800;28;118531;-72
2021/05/26 03:28:25;;;;;;;1.65;0.28;;;;;;;14.71;61.64;100503.44;4904432;28;97745;-71
2021/05/26 03:30:51;;;;;;;1.27;0.20;;;;;;;14.75;61.51;100498.22;4904315;28;126773;-63
2021/05/26 03:33:18;;;;;;;0.85;0.20;;;;;;;14.74;61.58;100497.44;4908673;28;98160;-63
2021/05/26 03:35:44;;;;;;;1.05;0.20;;;;;;;14.80;61.47;100500.84;4890071;28;97929;-63
2021/05/26 03:38:11;;;;;;;0.77;0.15;;;;;;;14.79;61.69;100489.19;4923605;28;98529;-71
2021/05/26 03:40:37;;;;;;;1.23;0.20;;;;;;;14.83;61.41;100501.06;4922272;28;127856;-63
2021/05/26 03:43:03;;;;;;;1.38;0.20;;;;;;;14.84;61.86;100491.03;4923034;28;98629;-63
2021/05/26 03:45:29;;;;;;;1.17;0.20;;;;;;;14.86;61.74;100491.56;4904398;28;109803;-71
2021/05/26 03:47:57;;;;;;;1.88;0.20;;;;;;;14.90;61.77;100485.22;4904100;28;125619;-71
2021/05/26 03:50:23;;;;;;;1.33;0.20;;;;;;;14.93;61.96;100479.22;4922301;28;98247;-71
2021/05/26 03:52:49;;;;;;;0.93;0.20;;;;;;;14.96;61.84;100484.03;4907617;28;98298;-70
2021/05/26 03:55:18;;;;;;;2.15;0.25;;;;;;;14.98;61.84;100478.34;4904507;28;98471;-71
2021/05/26 03:57:44;;;;;;;1.75;0.20;;;;;;;15.02;61.96;100492.13;4903194;28;98060;-63
2021/05/26 04:00:12;;;;;;;1.48;0.20;;;;;;;15.05;61.63;100489.63;4894121;28;110139;-71
2021/05/26 04:02:38;;;;;;;0.80;0.10;;;;;;;15.10;62.13;100492.25;4902565;28;98471;-71
2021/05/26 04:05:06;;;;;;;0.80;0.20;;;;;;;15.08;62.16;100497.16;4904307;28;97782;-63
2021/05/26 04:07:32;;;;;;;1.10;0.20;;;;;;;15.04;62.44;100495.31;4903220;28;98651;-71
2021/05/26 04:09:58;;;;;;;2.15;0.20;;;;;;;15.02;62.61;100483.97;4902272;28;114139;-72
2021/05/26 04:12:25;;;;;;;1.58;0.22;;;;;;;14.98;62.99;100486.47;4868840;28;127268;-71
2021/05/26 04:14:52;;;;;;;0.73;0.20;;;;;;;14.95;62.40;100493.28;4865462;28;97964;-71
2021/05/26 04:17:18;;;;;;;1.38;0.25;;;;;;;14.98;62.83;100489.19;4896390;28;98324;-71
2021/05/26 04:19:44;;;;;;;1.23;0.20;;;;;;;15.03;62.68;100491.00;4884081;28;128581;-71
2021/05/26 04:22:10;;;;;;;1.73;0.20;;;;;;;15.06;62.14;100483.06;4902354;28;126300;-63
2021/05/26 04:24:36;;;;;;;1.90;0.20;;;;;;;15.13;62.28;100477.25;4885561;28;97986;-63
2021/05/26 04:27:05;;;;;;;1.65;0.20;;;;;;;15.16;62.14;100485.59;4902475;28;127531;-71
2021/05/26 04:29:33;;;;;;;2.10;0.20;;;;;;;15.24;61.96;100489.56;4903343;28;99202;-63
2021/05/26 04:31:59;;;;;;;2.15;0.20;;;;;;;15.30;62.49;100479.44;4868869;28;98198;-63
2021/05/26 04:34:25;;;;;;;1.40;0.20;;;;;;;15.39;62.81;100485.78;4868113;28;112714;-71
2021/05/26 04:36:51;;;;;;;1.10;0.20;;;;;;;15.43;62.45;100487.59;4884011;28;126836;-63
2021/05/26 04:39:17;;;;;;;1.80;0.10;;;;;;;15.42;62.32;100483.28;4869024;28;111742;-71
2021/05/26 04:41:44;;;;;;;1.80;0.20;;;;;;;15.50;62.67;100487.22;4868040;28;110193;-63
2021/05/26 04:44:10;;;;;;;1.17;0.20;;;;;;;15.50;63.01;100484.50;4882581;28;97909;-71
2021/05/26 04:46:36;;;;;;;1.88;0.20;;;;;;;15.48;62.95;100481.25;4897513;28;128527;-63
2021/05/26 04:49:03;;;;;;;1.05;0.20;;;;;;;15.52;62.56;100478.75;4878220;28;112166;-63
2021/05/26 04:51:29;;;;;;;1.00;0.20;;;;;;;15.57;62.55;100481.38;4895800;28;111568;-63
2021/05/26 04:53:55;;;;;;;1.65;0.20;;;;;;;15.59;62.76;100485.41;4898734;28;103366;-71
2021/05/26 04:56:21;;;;;;;2.00;0.30;;;;;;;15.71;62.26;100474.88;4861050;28;125841;-70
2021/05/26 04:58:47;;;;;;;0.63;0.13;;;;;;;15.82;62.63;100472.75;4881271;28;100165;-71
2021/05/26 05:01:13;;;;;;;1.05;0.20;;;;;;;16.00;62.02;100481.94;4879212;28;127618;-63
2021/05/26 05:03:39;;;;;;;1.25;0.17;;;;;;;16.14;61.68;100471.84;4918370;28;115727;-63
2021/05/26 05:06:05;;;;;;;2.58;0.20;;;;;;;16.34;61.42;100469.78;4917650;28;99834;-63
2021/05/26 05:08:32;;;;;;;1.10;0.20;;;;;;;16.56;60.67;100467.13;4901681;28;98510;-63
2021/05/26 05:10:59;;;;;;;1.05;0.20;;;;;;;16.74;60.59;100472.72;4916298;28;98370;-63
2021/05/26 05:13:25;;;;;;;1.40;0.20;;;;;;;16.90;60.28;100479.44;4887452;28;98162;-63
2021/05/26 05:15:51;;;;;;;1.13;0.20;;;;;;;17.14;59.70;100468.22;4884409;28;107360;-71
2021/05/26 05:18:17;;;;;;;1.67;0.20;;;;;;;17.27;59.50;100469.25;4883832;28;127465;-71
2021/05/26 05:20:43;;;;;;;0.90;0.20;;;;;;;17.42;59.41;100471.59;4900080;28;98474;-63
2021/05/26 05:23:09;;;;;;;0.90;0.20;;;;;;;17.55;58.61;100459.78;4886795;28;117903;-71
2021/05/26 05:25:35;;;;;;;1.27;0.20;;;;;;;17.78;58.68;100468.72;4919508;28;128022;-63
2021/05/26 05:28:01;;;;;;;2.83;0.20;;;;;;;17.97;58.05;100460.28;4921193;28;127017;-70
2021/05/26 05:30:27;;;;;;;1.73;0.15;;;;;;;18.20;57.79;100460.19;4870894;28;113605;-63
2021/05/26 05:32:53;;;;;;;1.30;0.20;;;;;;;18.58;57.09;100477.53;4913811;28;98686;-70
2021/05/26 05:35:19;;;;;;;1.00;0.20;;;;;;;18.85;56.52;100453.81;4914540;28;128339;-64
2021/05/26 05:37:45;;;;;;;2.40;0.20;;;;;;;19.26;55.59;100468.84;4887279;28;107117;-63
2021/05/26 05:40:12;;;;;;;1.75;0.20;;;;;;;19.27;55.31;100462.25;4913753;28;98874;-71
2021/05/26 05:42:38;;;;;;;1.88;0.20;;;;;;;19.06;55.79;100464.84;4921711;28;98031;-70
2021/05/26 05:45:05;;;;;;;3.17;0.30;;;;;;;19.40;55.68;100455.78;4922267;28;100543;-64
2021/05/26 05:47:32;;;;;;;1.90;0.28;;;;;;;19.75;54.47;100459.19;4920377;28;98585;-71
2021/05/26 05:49:58;;;;;;;1.17;0.20;;;;;;;20.25;52.67;100463.91;4913248;28;97899;-71
2021/05/26 05:52:24;;;;;;;1.10;0.30;;;;;;;;;;4903058;28;118191;-64
2021/05/26 05:54:50;;;;;;;1.85;0.30;;;;;;;20.93;49.60;100450.00;4906724;28;127124;-71
2021/05/26 05:57:16;;;;;;;1.67;0.20;;;;;;;21.11;48.76;100456.13;4921554;28;126670;-71
2021/05/26 05:59:45;;;;;;;2.53;0.30;;;;;;;21.33;48.22;100458.47;4919038;28;100498;-64
2021/05/26 06:02:11;;;;;;;2.05;0.30;;;;;;;21.46;48.00;100462.06;4903198;28;106770;-64
2021/05/26 06:04:37;;;;;;;1.02;0.20;;;;;;;21.78;47.17;100460.38;4885719;28;129001;-71
2021/05/26 06:07:03;;;;;;;2.22;0.20;;;;;;;21.42;47.76;100460.31;4910540;28;98665;-71
2021/05/26 06:09:32;;;;;;;2.03;0.30;;;;;;;21.04;49.51;100461.34;4866165;28;127993;-70
2021/05/26 06:11:58;;;;;;;0.82;0.20;;;;;;;22.34;46.58;100453.47;4868271;28;101231;-64
2021/05/26 06:14:24;;;;;;;0.85;0.20;;;;;;;21.97;48.28;100459.00;4901150;28;98749;-64
2021/05/26 06:16:50;;;;;;;1.40;0.20;;;;;;;22.24;47.17;100452.81;4901062;28;110838;-70
2021/05/26 06:19:16;;;;;;;1.77;0.20;;;;;;;22.67;45.78;100459.53;4901527;28;127205;-71
2021/05/26 06:21:43;;;;;;;1.38;0.20;;;;;;;22.63;48.03;100452.34;4882563;28;117225;-70
2021/05/26 06:24:09;;;;;;;1.15;0.20;;;;;;;22.89;46.71;100454.66;4900238;28;125053;-71
2021/05/26 06:26:35;;;;;;;1.58;0.20;;;;;;;23.59;47.63;100456.91;4899621;28;98882;-71
2021/05/26 06:29:03;;;;;;;1.70;0.20;;;;;;;24.36;48.10;100456.34;4884611;28;103908;-71
2021/05/26 06:31:29;;;;;;;0.95;0.20;;;;;;;25.05;46.95;100464.88;4902232;28;98122;-64
2021/05/26 06:33:56;;;;;;;2.55;0.20;;;;;;;25.61;46.40;100454.06;4882721;28;113898;-64
2021/05/26 06:36:22;;;;;;;1.10;0.20;;;;;;;26.44;45.62;100456.88;4889527;28;98197;-71
2021/05/26 06:38:48;;;;;;;2.20;0.20;;;;;;;26.99;44.53;100452.81;4882413;28;129248;-71
2021/05/26 06:41:14;;;;;;;0.52;0.10;;;;;;;27.48;44.09;100463.59;4901229;28;117746;-71
2021/05/26 06:43:40;;;;;;;1.10;0.28;;;;;;;27.79;43.64;100461.50;4883311;28;103979;-64
2021/05/26 06:46:06;;;;;;;1.10;0.30;;;;;;;27.95;43.60;100456.47;4901379;28;98660;-71
2021/05/26 06:48:32;;;;;;;1.30;0.20;;;;;;;28.32;43.53;100459.06;4900436;28;98089;-65
2021/05/26 06:50:58;;;;;;;1.02;0.20;;;;;;;27.75;43.86;100461.47;4901672;28;97802;-71
2021/05/26 06:53:25;;;;;;;1.30;0.20;;;;;;;28.25;42.50;100459.00;4901883;28;109138;-64
2021/05/26 06:55:52;;;;;;;1.63;0.20;;;;;;;28.58;42.28;100457.25;4901043;28;99081;-71
2021/05/26 06:58:18;;;;;;;0.98;0.20;;;;;;;28.21;43.37;100471.25;4901545;28;98753;-71
2021/05/26 07:00:44;;;;;;;1.38;0.20;;;;;;;29.02;42.35;100457.00;4895672;28;99258;-71
2021/05/26 07:03:10;;;;;;;1.45;0.25;;;;;;;28.82;42.95;100448.19;4920936;28;98211;-64
2021/05/26 07:05:36;;;;;;;0.98;0.20;;;;;;;28.46;43.81;100447.28;4918436;28;102942;-72
2021/05/26 07:08:02;;;;;;;1.48;0.30;;;;;;;28.61;43.46;100448.94;4882297;28;126953;-71
2021/05/26 07:10:28;;;;;;;1.23;0.20;;;;;;;28.98;43.09;100445.09;4866295;28;108393;-71
2021/05/26 07:12:55;;;;;;;0.98;0.20;;;;;;;28.92;43.51;100443.84;4881794;28;127661;-65
2021/05/26 07:15:21;;;;;;;1.13;0.20;;;;;;;28.67;44.31;100454.09;4882174;28;128125;-64
2021/05/26 07:17:47;;;;;;;1.00;0.20;;;;;;;27.78;45.81;100438.53;4900375;28;127281;-64
2021/05/26 07:20:14;;;;;;;1.08;0.25;;;;;;;27.34;45.08;100444.88;4884319;28;98086;-71
2021/05/26 07:22:41;;;;;;;1.45;0.30;;;;;;;27.22;45.82;100442.41;4902385;28;98411;-72
2021/05/26 07:25:08;;;;;;;1.27;0.20;;;;;;;27.33;45.79;100445.28;4920535;28;98857;-71
2021/05/26 07:27:35;;;;;;;1.65;0.20;;;;;;;26.94;46.54;100437.34;4920904;28;98050;-72
2021/05/26 07:30:01;;;;;;;1.40;0.30;;;;;;;26.53;46.48;100437.31;4919713;28;97884;-64
2021/05/26 07:32:27;;;;;;;2.08;0.20;;;;;;;26.40;46.25;100439.44;4913497;28;99125;-64
2021/05/26 07:34:53;;;;;;;1.00;0.20;;;;;;;26.47;46.88;100430.50;4900696;28;128882;-64
2021/05/26 07:37:19;;;;;;;2.47;0.30;;;;;;;26.42;46.99;100431.59;4900260;28;114022;-71
2021/05/26 07:39:45;;;;;;;1.67;0.30;;;;;;;26.27;47.37;100442.84;4905792;28;97978;-71
2021/05/26 07:42:13;;;;;;;1.55;0.20;;;;;;;26.18;47.47;100438.41;4919532;28;120948;-71
2021/05/26 07:44:40;;;;;;;1.42;0.30;;;;;;;25.43;48.26;100428.16;4919614;28;98352;-69
2021/05/26 07:47:06;;;;;;;1.10;0.20;;;;;;;24.71;49.42;100440.59;4922102;28;98505;-71
2021/05/26 07:49:32;;;;;;;1.92;0.20;;;;;;;24.35;50.10;100443.75;4913929;28;97913;-71
2021/05/26 07:52:03;;;;;;;2.25;0.30;;;;;;;23.90;51.25;100436.88;4921255;28;108456;-70
2021/05/26 07:54:30;;;;;;;2.45;0.22;;;;;;;23.45;51.47;100443.59;4920691;28;99137;-63
2021/05/26 07:56:58;;;;;;;1.67;0.30;;;;;;;23.43;50.58;100421.97;4901596;28;114125;-71
2021/05/26 07:59:24;;;;;;;2.05;0.30;;;;;;;24.25;49.16;100423.09;4919017;28;98874;-70
2021/05/26 08:01:50;;;;;;;1.38;0.30;;;;;;;26.35;45.31;100414.13;4920182;28;99033;-71
2021/05/26 08:04:16;;;;;;;1.08;0.20;;;;;;;28.56;41.09;100418.81;4914736;28;118419;-71
2021/05/26 08:06:43;;;;;;;2.17;0.22;;;;;;;28.24;42.71;100420.63;4923165;28;97890;-71
2021/05/26 08:09:09;;;;;;;1.50;0.20;;;;;;;27.30;44.21;100423.91;4903761;28;116718;-64
2021/05/26 08:11:35;;;;;;;1.17;0.20;;;;;;;26.58;45.99;100423.13;4922561;28;99473;-70
2021/05/26 08:14:01;;;;;;;1.98;0.30;;;;;;;26.05;46.97;100419.66;4921033;28;127438;-63
2021/05/26 08:16:27;;;;;;;2.50;0.30;;;;;;;25.77;47.10;100414.47;4893208;28;98558;-70
2021/05/26 08:18:54;;;;;;;1.73;0.30;;;;;;;27.98;43.18;100402.28;4910909;28;113573;-70
2021/05/26 08:21:20;;;;;;;1.73;0.20;;;;;;;29.71;39.64;100411.47;4887428;28;98088;-65
2021/05/26 08:23:46;;;;;;;1.25;0.20;;;;;;;30.45;38.96;100418.00;4890876;28;127828;-71
2021/05/26 08:26:22;;;;;;;0.90;0.20;;;;;;;29.35;41.18;100407.88;4917293;28;119124;-64
2021/05/26 08:28:52;;;;;;;1.38;0.25;;;;;;;29.06;41.72;100402.31;4919721;28;97982;-70
2021/05/26 08:31:20;;;;;;;1.20;0.30;;;;;;;28.59;43.09;100384.75;4880979;28;98233;-70
2021/05/26 08:33:46;;;;;;;1.15;0.40;;;;;;;29.26;41.95;100383.31;4922689;28;98262;-63
2021/05/26 08:36:12;;;;;;;2.03;0.30;;;;;;;30.66;38.45;100382.97;4912236;28;97987;-72
2021/05/26 08:38:38;;;;;;;1.10;0.30;;;;;;;29.06;42.68;100380.13;4903360;28;97940;-71
2021/05/26 08:41:09;;;;;;;1.50;0.20;;;;;;;27.94;43.99;100369.00;4909132;28;98534;-70
2021/05/26 08:43:40;;;;;;;1.70;0.30;;;;;;;26.90;45.55;100370.97;4907951;28;100261;-71
2021/05/26 08:46:06;;;;;;;2.30;0.20;;;;;;;26.10;46.66;100381.47;4904347;28;98209;-71
2021/05/26 08:48:33;;;;;;;2.78;0.30;;;;;;;25.33;47.54;100362.56;4879469;28;104687;-70
2021/05/26 08:50:59;;;;;;;2.55;0.43;;;;;;;24.59;48.77;100365.56;4896017;28;128347;-63
2021/05/26 08:53:25;;;;;;;1.05;0.20;;;;;;;23.89;50.19;100360.94;4921200;28;116174;-63
2021/05/26 08:55:52;;;;;;;3.75;0.30;;;;;;;23.45;50.09;100358.34;4909964;28;98853;-63
2021/05/26 08:58:18;;;;;;;1.33;0.20;;;;;;;23.16;51.03;100357.66;4902822;28;98231;-70
2021/05/26 09:00:45;;;;;;;1.30;0.20;;;;;;;22.70;52.16;100364.66;4902671;28;98137;-63
2021/05/26 09:03:11;;;;;;;1.40;0.20;;;;;;;22.26;52.35;100359.94;4904284;28;98919;-63
2021/05/26 09:05:37;;;;;;;2.45;0.20;;;;;;;21.90;52.59;100360.00;4913207;28;99543;-63
2021/05/26 09:08:29;;;;;;;1.33;0.20;;;;;;;21.56;52.92;100353.88;4918155;28;97799;-70
2021/05/26 09:11:00;;;;;;;1.75;0.20;;;;;;;21.21;53.60;100362.50;4905399;28;126080;-62
2021/05/26 09:13:35;;;;;;;1.88;0.30;;;;;;;21.00;54.82;100359.84;4903996;28;99137;-63
2021/05/26 09:16:02;;;;;;;1.50;0.20;;;;;;;21.00;55.38;100362.59;4918974;28;98094;-63
2021/05/26 09:18:28;;;;;;;2.63;0.40;;;;;;;20.88;55.15;100356.31;4926883;28;97918;-69
2021/05/26 09:20:58;;;;;;;2.10;0.30;;;;;;;20.93;55.33;100353.34;4908839;28;98762;-69
2021/05/26 09:23:30;;;;;;;2.38;0.30;;;;;;;20.90;54.81;100352.06;4882340;28;98160;-69
2021/05/26 09:26:00;;;;;;;1.00;0.20;;;;;;;20.90;54.64;100352.06;4870687;28;98447;-69
2021/05/26 09:28:34;;;;;;;2.95;0.50;;;;;;;20.91;54.92;100345.47;4915079;28;97896;-70
2021/05/26 09:31:10;;;;;;;2.38;0.35;;;;;;;20.78;55.35;100343.81;4916658;28;100008;-62
2021/05/26 09:33:51;;;;;;;1.67;0.20;;;;;;;20.66;55.78;100339.13;4900157;28;99820;-69
2021/05/26 09:36:24;;;;;;;1.52;0.20;;;;;;;20.55;55.45;100340.66;4911071;28;98316;-62
2021/05/26 09:38:59;;;;;;;2.15;0.40;;;;;;;20.55;55.96;100340.66;4917875;28;97892;-69
2021/05/26 09:41:30;;;;;;;1.95;0.30;;;;;;;20.70;56.33;100344.72;4906328;28;99133;-63
2021/05/26 09:44:00;;;;;;;1.77;0.30;;;;;;;20.50;56.23;100338.94;4911013;28;99257;-69
2021/05/26 09:46:30;;;;;;;5.07;0.43;;;;;;;20.66;56.41;100336.38;4898408;28;98170;-69
2021/05/26 09:49:22;;;;;;;1.73;0.40;;;;;;;20.62;55.77;100332.72;4906324;28;97945;-62
2021/05/26 09:51:55;;;;;;;1.42;0.30;;;;;;;20.58;56.70;100332.59;4909420;28;98283;-69
2021/05/26 09:54:25;;;;;;;2.10;0.40;;;;;;;20.48;57.00;100326.72;4907876;28;98432;-62
2021/05/26 09:56:53;;;;;;;2.45;0.40;;;;;;;20.35;57.25;100329.41;4916445;28;99710;-63
2021/05/26 09:59:22;;;;;;;2.30;0.40;;;;;;;20.31;57.39;100327.66;4910192;28;98083;-69
2021/05/26 10:01:54;;;;;;;1.52;0.30;;;;;;;20.29;57.86;100330.75;4917780;28;98924;-62
2021/05/26 10:04:20;;;;;;;1.20;0.30;;;;;;;20.43;57.02;100327.72;4900676;28;99010;-68
2021/05/26 10:06:47;;;;;;;1.42;0.30;;;;;;;20.47;57.00;100328.63;4924704;28;98410;-69
2021/05/26 10:09:14;;;;;;;1.60;0.30;;;;;;;20.48;57.11;100332.19;4875705;28;98000;-62
2021/05/26 10:11:40;;;;;;;1.70;0.30;;;;;;;20.42;57.11;100333.53;4918545;28;98511;-69
2021/05/26 10:14:15;;;;;;;2.05;0.32;;;;;;;20.44;56.40;100331.28;4914328;28;99782;-69
2021/05/26 10:16:44;;;;;;;1.13;0.22;;;;;;;20.44;57.72;100342.22;4883219;28;108130;-69
2021/05/26 10:19:11;;;;;;;2.03;0.40;;;;;;;20.40;57.58;100339.34;4902483;28;97814;-62
2021/05/26 10:21:38;;;;;;;1.55;0.25;;;;;;;20.59;57.17;100341.59;4912700;28;98890;-69
2021/05/26 10:24:08;;;;;;;1.35;0.30;;;;;;;20.49;57.55;100337.34;4917660;28;98497;-69
2021/05/26 10:26:50;;;;;;;1.00;0.22;;;;;;;20.35;56.89;100336.81;4904161;28;97897;-62
2021/05/26 10:29:28;;;;;;;0.83;0.20;;;;;;;20.27;57.47;100335.75;4921109;28;98981;-62
2021/05/26 10:32:01;;;;;;;1.42;0.28;;;;;;;20.38;58.34;100335.34;4913595;28;97795;-62
2021/05/26 10:34:42;;;;;;;1.75;0.30;;;;;;;20.32;57.25;100334.75;4912686;28;99107;-62
2021/05/26 10:37:13;;;;;;;1.90;0.25;;;;;;;20.39;58.10;100328.72;4912242;28;98558;-69
2021/05/26 10:39:39;;;;;;;1.52;0.30;;;;;;;20.18;58.66;100326.03;4906335;28;97704;-63
2021/05/26 10:42:07;;;;;;;1.55;0.32;;;;;;;20.39;58.56;100324.06;4919632;28;98905;-69
2021/05/26 10:45:06;;;;;;;1.88;0.30;;;;;;;20.39;57.96;100320.50;4891592;28;99884;-62
2021/05/26 10:47:44;;;;;;;1.30;0.30;;;;;;;20.33;58.17;100325.41;4905582;28;98408;-62
2021/05/26 10:50:26;;;;;;;1.48;0.35;;;;;;;20.37;59.38;100331.81;4896658;28;97890;-69
2021/05/26 10:52:58;;;;;;;1.65;0.30;;;;;;;20.31;58.43;100333.94;4919828;28;98441;-62
2021/05/26 10:55:50;;;;;;;;;;;;;;;20.36;57.93;100335.69;4914801;28;98574;-63
2021/05/26 10:58:31;;;;;;;1.50;0.30;;;;;;;20.36;58.26;100332.97;4915814;28;98693;-69
2021/05/26 11:01:00;;;;;;;1.60;0.30;;;;;;;20.33;59.81;100328.16;4913613;28;99326;-69
2021/05/26 11:03:29;;;;;;;1.77;0.30;;;;;;;20.27;59.49;100330.28;4901900;28;98059;-70
2021/05/26 11:05:59;;;;;;;1.73;0.22;;;;;;;20.25;59.58;100323.56;4909992;28;98337;-69
2021/05/26 11:11:29;;;;;;;1.48;0.50;;;;;;;20.39;58.04;100326.00;4908800;28;97999;-69
2021/05/26 11:14:09;;;;;;;1.50;0.32;;;;;;;20.42;58.34;100325.31;4919389;28;98425;-69
2021/05/26 11:17:16;;;;;;;2.75;0.40;;;;;;;20.45;58.25;100327.41;4895919;28;98280;-70
2021/05/26 11:19:42;;;;;;;2.08;0.50;;;;;;;20.38;59.53;100327.94;4917927;28;98032;-63
2021/05/26 11:22:14;;;;;;;3.30;0.30;;;;;;;20.24;60.06;100324.66;4916341;28;115876;-69
2021/05/26 11:24:46;;;;;;;1.42;0.38;;;;;;;20.28;60.43;100323.69;4904292;28;98509;-69
2021/05/26 11:27:22;;;;;;;1.73;0.40;;;;;;;20.25;59.45;100326.28;4922526;28;99411;-69